Time;durP1;ratioP1;P1;durP2;ratioP2;P2;SDS_P1;SDS_P2;PMS_P1;PMS_P2;Temp;Humidity;BMP_temperature;BMP_pressure;BME280_temperature;BME280_humidity;BME280_pressure;Samples;Min_cycle;Max_cycle;Signal;HPM_P1;HPM_P2
2022/12/01 00:00:18;;;;;;;73.78;32.10;;;4.40;99.90;;;;;;5048812;28;20116;-67
2022/12/01 00:02:43;;;;;;;70.38;33.47;;;4.40;99.90;;;;;;5050660;28;20086;-66
2022/12/01 00:05:09;;;;;;;69.05;32.92;;;4.40;99.90;;;;;;5050425;28;20021;-67
2022/12/01 00:07:35;;;;;;;69.57;33.78;;;4.40;99.90;;;;;;5049921;28;20075;-67
2022/12/01 00:12:44;;;;;;;71.72;33.85;;;4.30;99.90;;;;;;5050350;28;20211;-66
2022/12/01 00:15:10;;;;;;;70.25;32.15;;;4.30;99.90;;;;;;5050405;28;20044;-66
2022/12/01 00:17:37;;;;;;;71.85;34.03;;;4.30;99.90;;;;;;5050035;28;20449;-66
2022/12/01 00:20:03;;;;;;;70.22;33.38;;;4.20;99.90;;;;;;5050352;28;20108;-68
2022/12/01 00:22:28;;;;;;;70.55;32.97;;;4.20;99.90;;;;;;5049828;28;20421;-68
2022/12/01 00:24:54;;;;;;;74.55;33.70;;;4.20;99.90;;;;;;5050418;28;20029;-68
2022/12/01 00:27:19;;;;;;;69.90;33.60;;;4.20;99.90;;;;;;5049885;28;20025;-68
2022/12/01 00:29:45;;;;;;;71.88;33.53;;;4.10;99.90;;;;;;5051194;28;20021;-67
2022/12/01 00:32:11;;;;;;;73.13;32.72;;;4.10;99.90;;;;;;5054179;28;20476;-68
2022/12/01 00:34:37;;;;;;;74.50;36.22;;;4.10;99.90;;;;;;5053778;28;20040;-69
2022/12/01 00:37:03;;;;;;;72.05;34.28;;;4.10;99.90;;;;;;5054287;28;20044;-67
2022/12/01 00:39:29;;;;;;;67.80;33.78;;;4.10;99.90;;;;;;5053508;28;20079;-68
2022/12/01 00:41:55;;;;;;;72.18;35.00;;;4.00;99.90;;;;;;5054020;28;20025;-67
2022/12/01 00:44:20;;;;;;;71.28;33.15;;;4.00;99.90;;;;;;5053370;28;20036;-67
2022/12/01 00:46:46;;;;;;;72.47;32.97;;;4.00;99.90;;;;;;5053878;28;20024;-67
2022/12/01 00:49:12;;;;;;;68.60;33.17;;;4.00;99.90;;;;;;5053718;28;20515;-66
2022/12/01 00:51:38;;;;;;;69.22;33.83;;;4.00;99.90;;;;;;5053600;28;20033;-66
2022/12/01 00:54:04;;;;;;;69.95;33.13;;;4.00;99.90;;;;;;5053442;28;20091;-67
2022/12/01 00:56:30;;;;;;;69.45;33.53;;;4.00;99.90;;;;;;5052981;28;20029;-67
2022/12/01 00:58:55;;;;;;;74.30;34.05;;;3.90;99.90;;;;;;5053691;28;20059;-67
2022/12/01 01:01:21;;;;;;;70.22;33.08;;;3.90;99.90;;;;;;5052760;28;20063;-67
2022/12/01 01:03:47;;;;;;;69.22;34.70;;;3.90;99.90;;;;;;5053521;28;20052;-68
2022/12/01 01:06:13;;;;;;;71.25;33.60;;;3.90;99.90;;;;;;5053572;28;20037;-67
2022/12/01 01:08:39;;;;;;;66.75;32.30;;;4.00;99.90;;;;;;5053041;28;20021;-67
2022/12/01 01:11:07;;;;;;;71.88;34.00;;;4.00;99.90;;;;;;5053206;28;20036;-67
2022/12/01 01:13:34;;;;;;;73.00;32.80;;;4.00;99.90;;;;;;5052835;28;20083;-66
2022/12/01 01:16:02;;;;;;;73.43;33.92;;;4.00;99.90;;;;;;5053298;28;20475;-66
2022/12/01 01:18:28;;;;;;;70.10;33.22;;;3.90;99.90;;;;;;5052787;28;20036;-67
2022/12/01 01:21:00;;;;;;;64.70;31.60;;;3.90;99.90;;;;;;5053136;28;20036;-67
2022/12/01 01:23:25;;;;;;;74.97;34.50;;;3.90;99.90;;;;;;5052332;28;20083;-67
2022/12/01 01:25:51;;;;;;;72.78;33.75;;;3.90;99.90;;;;;;5053131;28;20068;-67
2022/12/01 01:28:18;;;;;;;70.18;33.58;;;3.90;99.90;;;;;;5052201;28;20025;-70
2022/12/01 01:30:45;;;;;;;76.50;32.45;;;3.90;99.90;;;;;;5053027;28;20170;-67
2022/12/01 01:33:10;;;;;;;76.40;34.53;;;3.90;99.90;;;;;;5052945;28;20480;-67
2022/12/01 01:35:36;;;;;;;67.55;33.38;;;3.90;99.90;;;;;;5050816;28;20128;-68
2022/12/01 01:38:02;;;;;;;69.00;31.98;;;3.90;99.90;;;;;;5052225;28;20458;-66
2022/12/01 01:40:28;;;;;;;72.93;33.75;;;3.90;99.90;;;;;;5051714;28;20355;-66
2022/12/01 01:42:53;;;;;;;67.22;32.72;;;3.90;99.90;;;;;;5052775;28;20086;-67
2022/12/01 01:45:21;;;;;;;77.13;34.63;;;3.80;99.90;;;;;;5052130;28;20487;-67
2022/12/01 01:47:48;;;;;;;74.32;35.97;;;3.80;99.90;;;;;;5052367;28;20140;-67
2022/12/01 01:50:17;;;;;;;70.68;34.15;;;3.80;99.90;;;;;;5052968;28;20043;-67
2022/12/01 01:52:47;;;;;;;72.88;33.22;;;3.80;99.90;;;;;;5052630;28;20029;-66
2022/12/01 01:55:14;;;;;;;74.88;34.13;;;3.80;99.90;;;;;;5052656;28;20052;-66
2022/12/01 01:57:40;;;;;;;69.85;34.35;;;3.80;99.90;;;;;;5051760;28;20033;-68
2022/12/01 02:00:14;;;;;;;79.68;35.58;;;3.80;99.90;;;;;;5052479;28;20029;-66
2022/12/01 02:02:44;;;;;;;79.50;34.75;;;3.80;99.90;;;;;;5051995;28;20116;-66
2022/12/01 02:05:19;;;;;;;79.30;33.78;;;3.70;99.90;;;;;;5052354;28;20029;-68
2022/12/01 02:07:46;;;;;;;69.93;32.70;;;3.70;99.90;;;;;;5052088;28;20096;-68
2022/12/01 02:10:14;;;;;;;72.45;36.28;;;3.70;99.90;;;;;;5052130;28;20060;-68
2022/12/01 02:12:47;;;;;;;71.43;32.25;;;3.70;99.90;;;;;;5051463;28;20525;-68
2022/12/01 02:15:26;;;;;;;72.80;33.88;;;3.70;99.90;;;;;;5052544;28;20021;-68
2022/12/01 02:18:16;;;;;;;70.28;35.42;;;3.70;99.90;;;;;;5052477;28;20025;-67
2022/12/01 02:21:00;;;;;;;67.25;31.70;;;3.70;99.90;;;;;;5052392;28;20028;-68
2022/12/01 02:23:59;;;;;;;72.35;34.13;;;3.70;99.90;;;;;;5051852;28;20086;-67
2022/12/01 02:26:47;;;;;;;70.90;34.95;;;3.70;99.90;;;;;;5051852;28;20024;-68
2022/12/01 02:29:22;;;;;;;70.00;32.88;;;3.70;99.90;;;;;;5052057;28;20025;-68
2022/12/01 02:32:12;;;;;;;77.68;34.88;;;3.70;99.90;;;;;;5052166;28;20036;-68
2022/12/01 02:34:46;;;;;;;69.55;34.03;;;3.70;99.90;;;;;;5051540;28;20048;-68
2022/12/01 02:37:30;;;;;;;73.45;33.95;;;3.70;99.90;;;;;;5052051;28;20041;-68
2022/12/01 02:40:16;;;;;;;68.00;33.45;;;3.60;99.90;;;;;;5052076;28;20112;-68
2022/12/01 02:43:00;;;;;;;71.78;34.25;;;3.60;99.90;;;;;;5051412;28;20099;-67
2022/12/01 02:45:42;;;;;;;74.80;34.17;;;3.60;99.90;;;;;;5051385;28;20025;-67
2022/12/01 02:48:15;;;;;;;70.38;33.15;;;3.60;99.90;;;;;;5051530;28;20094;-68
2022/12/01 02:50:41;;;;;;;69.63;33.00;;;3.60;99.90;;;;;;5049949;28;20111;-68
2022/12/01 02:53:10;;;;;;;74.90;35.03;;;3.60;99.90;;;;;;5050998;28;20029;-67
2022/12/01 02:55:36;;;;;;;72.07;34.63;;;3.60;99.90;;;;;;5050988;28;20025;-67
2022/12/01 02:58:01;;;;;;;70.90;34.33;;;3.50;99.90;;;;;;5051400;28;20454;-67
2022/12/01 03:00:29;;;;;;;72.55;35.30;;;3.50;99.90;;;;;;5050879;28;20029;-67
2022/12/01 03:03:21;;;;;;;74.22;34.55;;;3.60;99.90;;;;;;5051335;28;20044;-66
2022/12/01 03:05:57;;;;;;;76.72;35.08;;;3.50;99.90;;;;;;5051475;28;20035;-66
2022/12/01 03:08:22;;;;;;;76.32;35.25;;;3.50;99.90;;;;;;5051008;28;20033;-67
2022/12/01 03:11:00;;;;;;;73.70;35.50;;;3.50;99.90;;;;;;5051058;28;20110;-67
2022/12/01 03:13:31;;;;;;;73.03;35.30;;;3.50;99.90;;;;;;5050322;28;20501;-67
2022/12/01 03:16:03;;;;;;;78.28;34.38;;;3.40;99.90;;;;;;5051213;28;20378;-66
2022/12/01 03:18:44;;;;;;;72.85;35.25;;;3.40;99.90;;;;;;5050252;28;20103;-67
2022/12/01 03:21:28;;;;;;;70.43;34.58;;;3.50;99.90;;;;;;5050998;28;20044;-66
2022/12/01 03:24:10;;;;;;;74.72;34.60;;;3.40;99.90;;;;;;5050994;28;20035;-67
2022/12/01 03:26:38;;;;;;;71.88;34.65;;;3.40;99.90;;;;;;5050479;28;20052;-68
2022/12/01 03:29:14;;;;;;;73.47;35.22;;;3.40;99.90;;;;;;5051114;28;20041;-68
2022/12/01 03:31:51;;;;;;;71.82;34.30;;;3.40;99.90;;;;;;5049941;28;20090;-68
2022/12/01 03:34:29;;;;;;;69.82;32.42;;;3.30;99.90;;;;;;5050645;28;20052;-68
2022/12/01 03:37:00;;;;;;;69.75;34.08;;;3.30;99.90;;;;;;5049386;28;20398;-68
2022/12/01 03:39:32;;;;;;;73.45;35.45;;;3.40;99.90;;;;;;5050573;28;20154;-67
2022/12/01 03:42:14;;;;;;;74.05;34.95;;;3.40;99.90;;;;;;5051048;28;20107;-67
2022/12/01 03:44:46;;;;;;;72.82;34.08;;;3.30;99.90;;;;;;5049924;28;20079;-67
2022/12/01 03:47:25;;;;;;;74.53;35.72;;;3.30;99.90;;;;;;5050875;28;20104;-68
2022/12/01 03:49:52;;;;;;;75.97;36.15;;;3.30;99.90;;;;;;5050904;28;20051;-68
2022/12/01 03:52:42;;;;;;;75.32;35.83;;;3.30;99.90;;;;;;5050653;28;20123;-71
2022/12/01 03:55:23;;;;;;;72.95;33.60;;;3.30;99.90;;;;;;5051017;28;20112;-67
2022/12/01 03:57:56;;;;;;;70.60;33.80;;;3.30;99.90;;;;;;5050622;28;20390;-68
2022/12/01 04:00:22;;;;;;;77.25;35.63;;;3.20;99.90;;;;;;5050439;28;20029;-67
2022/12/01 04:02:54;;;;;;;75.80;34.33;;;3.20;99.90;;;;;;5050545;28;20788;-68
2022/12/01 04:05:20;;;;;;;70.30;34.85;;;3.20;99.90;;;;;;5052765;28;20134;-70
2022/12/01 04:07:45;;;;;;;73.78;34.60;;;3.20;99.90;;;;;;5054919;28;20029;-67
2022/12/01 04:10:11;;;;;;;78.95;35.53;;;3.20;99.90;;;;;;5055155;28;20051;-68
2022/12/01 04:12:36;;;;;;;70.25;34.22;;;3.20;99.90;;;;;;5054214;28;20159;-66
2022/12/01 04:15:06;;;;;;;74.47;35.17;;;3.20;99.90;;;;;;5055056;28;20355;-68
2022/12/01 04:17:33;;;;;;;67.30;34.08;;;3.20;99.90;;;;;;5054334;28;20035;-68
2022/12/01 04:19:59;;;;;;;76.15;34.70;;;3.20;99.90;;;;;;5054819;28;20108;-69
2022/12/01 04:22:25;;;;;;;71.45;33.42;;;3.20;99.90;;;;;;5054650;28;20028;-68
2022/12/01 04:24:52;;;;;;;71.57;35.85;;;3.20;99.90;;;;;;5054343;28;20596;-66
2022/12/01 04:27:18;;;;;;;69.88;33.30;;;3.20;99.90;;;;;;5054848;28;20182;-67
2022/12/01 04:29:44;;;;;;;75.07;34.70;;;3.20;99.90;;;;;;5053107;28;20029;-67
2022/12/01 04:32:10;;;;;;;69.55;32.53;;;3.30;99.90;;;;;;5054259;28;20041;-67
2022/12/01 04:34:35;;;;;;;72.05;35.30;;;3.30;99.90;;;;;;5054183;28;20029;-67
2022/12/01 04:37:02;;;;;;;74.40;35.83;;;3.20;99.90;;;;;;5054497;28;20067;-66
2022/12/01 04:39:27;;;;;;;75.45;36.60;;;3.20;99.90;;;;;;5054195;28;20078;-66
2022/12/01 04:41:53;;;;;;;80.90;37.30;;;3.20;99.90;;;;;;5054381;28;20033;-68
2022/12/01 04:44:19;;;;;;;75.40;33.97;;;3.20;99.90;;;;;;5053817;28;20024;-71
2022/12/01 04:46:45;;;;;;;74.60;36.30;;;3.20;99.90;;;;;;5053983;28;20031;-68
2022/12/01 04:49:10;;;;;;;74.47;36.95;;;3.10;99.90;;;;;;5053997;28;20075;-68
2022/12/01 04:51:36;;;;;;;79.45;37.47;;;3.10;99.90;;;;;;5053381;28;20028;-68
2022/12/01 04:54:02;;;;;;;78.10;36.75;;;3.10;99.90;;;;;;5053882;28;20378;-68
2022/12/01 04:56:28;;;;;;;78.10;36.10;;;3.10;99.90;;;;;;5053566;28;20098;-68
2022/12/01 04:58:54;;;;;;;73.97;35.28;;;3.10;99.90;;;;;;5054167;28;20037;-67
2022/12/01 05:01:19;;;;;;;79.60;36.70;;;3.10;99.90;;;;;;5054670;28;20039;-71
2022/12/01 05:03:48;;;;;;;71.53;34.63;;;3.10;99.90;;;;;;5054793;28;20025;-68
2022/12/01 05:06:20;;;;;;;77.97;35.45;;;3.10;99.90;;;;;;5054829;28;20021;-68
2022/12/01 05:08:46;;;;;;;80.55;37.30;;;3.10;99.90;;;;;;5054768;28;20025;-68
2022/12/01 05:11:13;;;;;;;81.05;37.83;;;3.10;99.90;;;;;;5055025;28;20056;-68
2022/12/01 05:13:40;;;;;;;75.72;35.58;;;3.10;99.90;;;;;;5054013;28;20040;-68
2022/12/01 05:16:27;;;;;;;72.55;36.03;;;3.10;99.90;;;;;;5053902;28;20540;-67
2022/12/01 05:21:41;;;;;;;72.63;35.22;;;3.10;99.90;;;;;;5054027;28;20040;-66
2022/12/01 05:24:08;;;;;;;76.40;37.35;;;3.10;99.90;;;;;;5054409;28;20025;-66
2022/12/01 05:26:33;;;;;;;75.95;36.33;;;3.10;99.90;;;;;;5053572;28;20025;-67
2022/12/01 05:28:59;;;;;;;73.78;36.28;;;3.10;99.90;;;;;;5054427;28;20052;-66
2022/12/01 05:31:25;;;;;;;73.68;36.85;;;3.10;99.90;;;;;;5053721;28;20032;-68
2022/12/01 05:33:50;;;;;;;78.10;37.17;;;3.10;99.90;;;;;;5054239;28;20021;-67
2022/12/01 05:36:16;;;;;;;81.65;38.72;;;3.00;99.90;;;;;;5053942;28;20079;-67
2022/12/01 05:38:42;;;;;;;78.95;38.70;;;3.10;99.90;;;;;;5052264;28;20029;-67
2022/12/01 05:41:08;;;;;;;76.57;35.17;;;3.10;99.90;;;;;;5053738;28;20072;-68
2022/12/01 05:43:33;;;;;;;75.75;36.35;;;3.10;99.90;;;;;;5052968;28;20064;-67
2022/12/01 05:45:59;;;;;;;78.25;38.30;;;3.10;99.90;;;;;;5052992;28;20445;-66
2022/12/01 05:48:24;;;;;;;81.57;38.10;;;3.00;99.90;;;;;;5053049;28;20033;-70
2022/12/01 05:50:50;;;;;;;73.72;35.92;;;3.00;99.90;;;;;;5052396;28;20037;-67
2022/12/01 05:53:17;;;;;;;76.65;37.30;;;3.00;99.90;;;;;;5052172;28;20051;-67
2022/12/01 05:55:43;;;;;;;85.18;37.17;;;3.00;99.90;;;;;;5050064;28;20363;-66
2022/12/01 05:58:09;;;;;;;76.57;37.60;;;3.00;99.90;;;;;;5052860;28;20048;-66
2022/12/01 06:00:36;;;;;;;82.53;38.15;;;3.00;99.90;;;;;;5052298;28;20040;-67
2022/12/01 06:03:02;;;;;;;77.60;36.17;;;3.00;99.90;;;;;;5053368;28;20033;-67
2022/12/01 06:05:27;;;;;;;78.25;37.13;;;3.00;99.90;;;;;;5052886;28;20055;-67
2022/12/01 06:07:53;;;;;;;73.30;35.08;;;3.10;99.90;;;;;;5053190;28;20025;-66
2022/12/01 06:10:19;;;;;;;78.07;36.13;;;3.10;99.90;;;;;;5053712;28;20061;-66
2022/12/01 06:12:45;;;;;;;84.03;37.40;;;3.10;99.90;;;;;;5052847;28;20027;-67
2022/12/01 06:15:11;;;;;;;78.85;37.50;;;3.10;99.90;;;;;;5053392;28;20047;-67
2022/12/01 06:17:37;;;;;;;84.07;37.78;;;3.10;99.90;;;;;;5052794;28;20029;-67
2022/12/01 06:20:04;;;;;;;83.05;36.55;;;3.10;99.90;;;;;;5053209;28;20029;-67
2022/12/01 06:22:29;;;;;;;74.32;37.00;;;3.10;99.90;;;;;;5052329;28;20363;-68
2022/12/01 06:24:55;;;;;;;80.18;38.03;;;3.10;99.90;;;;;;5053062;28;20031;-67
2022/12/01 06:27:21;;;;;;;80.53;36.97;;;3.10;99.90;;;;;;5052169;28;20039;-67
2022/12/01 06:29:48;;;;;;;79.68;36.00;;;3.10;99.90;;;;;;5052686;28;20759;-67
2022/12/01 06:32:14;;;;;;;75.22;36.90;;;3.10;99.90;;;;;;5053246;28;20037;-66
2022/12/01 06:34:39;;;;;;;80.75;37.53;;;3.10;99.90;;;;;;5052604;28;20029;-67
2022/12/01 06:37:05;;;;;;;75.75;36.50;;;3.10;99.90;;;;;;5053246;28;20445;-67
2022/12/01 06:39:31;;;;;;;73.90;35.92;;;3.10;99.90;;;;;;5052120;28;20032;-70
2022/12/01 06:41:56;;;;;;;79.07;36.08;;;3.10;99.90;;;;;;5052977;28;20423;-67
2022/12/01 06:44:22;;;;;;;83.47;38.15;;;3.10;99.90;;;;;;5052750;28;20534;-67
2022/12/01 06:46:51;;;;;;;75.90;38.30;;;3.10;99.90;;;;;;5052222;28;20489;-67
2022/12/01 06:49:18;;;;;;;77.00;34.58;;;3.10;99.90;;;;;;5052585;28;20036;-67
2022/12/01 06:51:44;;;;;;;75.95;36.17;;;3.10;99.90;;;;;;5052219;28;20044;-67
2022/12/01 06:54:11;;;;;;;77.50;36.85;;;3.10;99.90;;;;;;5051294;28;20025;-66
2022/12/01 06:56:37;;;;;;;75.97;36.85;;;3.10;99.90;;;;;;5051857;28;20418;-67
2022/12/01 06:59:03;;;;;;;79.97;36.60;;;3.20;99.90;;;;;;5052278;28;20025;-67
2022/12/01 07:01:28;;;;;;;74.35;36.03;;;3.20;99.90;;;;;;5052332;28;20036;-66
2022/12/01 07:03:54;;;;;;;73.90;36.92;;;3.20;99.90;;;;;;5051777;28;20065;-66
2022/12/01 07:06:20;;;;;;;74.32;37.42;;;3.20;99.90;;;;;;5052420;28;20029;-67
2022/12/01 07:08:45;;;;;;;78.28;37.58;;;3.20;99.90;;;;;;5051769;28;20074;-67
2022/12/01 07:11:13;;;;;;;73.55;36.17;;;3.20;99.90;;;;;;5051987;28;20446;-67
2022/12/01 07:13:40;;;;;;;75.25;36.42;;;3.20;99.90;;;;;;5051717;28;20074;-67
2022/12/01 07:16:07;;;;;;;70.65;36.65;;;3.20;99.90;;;;;;5051982;28;20040;-67
2022/12/01 07:18:34;;;;;;;82.20;38.03;;;3.20;99.90;;;;;;5051767;28;20104;-71
2022/12/01 07:21:09;;;;;;;78.97;36.92;;;3.20;99.90;;;;;;5052074;28;20083;-67
2022/12/01 07:23:35;;;;;;;76.95;37.33;;;3.20;99.90;;;;;;5051618;28;20055;-67
2022/12/01 07:26:13;;;;;;;69.45;35.63;;;3.30;99.90;;;;;;5052159;28;20029;-67
2022/12/01 07:28:39;;;;;;;74.43;36.20;;;3.30;99.90;;;;;;5051673;28;20025;-67
2022/12/01 07:31:10;;;;;;;77.05;37.67;;;3.30;99.90;;;;;;5052111;28;20052;-68
2022/12/01 07:33:36;;;;;;;72.88;35.85;;;3.30;99.90;;;;;;5051523;28;20491;-68
2022/12/01 07:36:03;;;;;;;78.88;36.83;;;3.30;99.90;;;;;;5051368;28;20173;-68
2022/12/01 07:38:29;;;;;;;77.90;38.03;;;3.30;99.90;;;;;;5051456;28;20123;-67
2022/12/01 07:41:01;;;;;;;76.07;37.13;;;3.30;99.90;;;;;;5051637;28;20025;-68
2022/12/01 07:43:26;;;;;;;;;;;3.30;99.90;;;;;;5048952;28;20029;-67
2022/12/01 07:45:52;;;;;;;72.30;35.33;;;3.30;99.90;;;;;;5051487;28;20124;-68
2022/12/01 07:48:17;;;;;;;69.68;34.85;;;3.30;99.90;;;;;;5051753;28;20032;-67
2022/12/01 07:50:43;;;;;;;71.45;35.70;;;3.30;99.90;;;;;;5051204;28;20379;-68
2022/12/01 07:53:09;;;;;;;76.18;36.20;;;3.30;99.90;;;;;;5051644;28;20036;-67
2022/12/01 07:55:34;;;;;;;72.03;34.92;;;3.30;99.90;;;;;;5051582;28;20036;-66
2022/12/01 07:58:00;;;;;;;80.63;37.35;;;3.30;99.90;;;;;;5052039;28;20033;-66
2022/12/01 08:00:26;;;;;;;76.55;36.45;;;3.30;99.90;;;;;;5051943;28;20033;-67
2022/12/01 08:02:51;;;;;;;74.10;34.58;;;3.30;99.90;;;;;;5054087;28;20411;-67
2022/12/01 08:05:17;;;;;;;82.43;38.10;;;3.40;99.90;;;;;;5071689;28;20032;-66
2022/12/01 08:07:42;;;;;;;70.15;35.05;;;3.40;99.90;;;;;;5071292;28;20021;-67
2022/12/01 08:10:09;;;;;;;80.53;36.72;;;3.40;99.90;;;;;;5061792;28;20032;-66
2022/12/01 08:12:34;;;;;;;70.32;36.33;;;3.40;99.90;;;;;;5051976;28;20127;-68
2022/12/01 08:15:00;;;;;;;76.05;36.42;;;3.50;99.90;;;;;;5051484;28;20096;-66
2022/12/01 08:17:26;;;;;;;79.43;36.55;;;3.50;99.90;;;;;;5051616;28;20104;-67
2022/12/01 08:19:51;;;;;;;71.72;35.13;;;3.50;99.90;;;;;;5051376;28;20021;-67
2022/12/01 08:22:17;;;;;;;78.65;36.47;;;3.50;99.90;;;;;;5051704;28;20040;-67
2022/12/01 08:24:43;;;;;;;76.55;36.55;;;3.50;99.90;;;;;;5050187;28;20028;-67
2022/12/01 08:27:08;;;;;;;72.43;37.03;;;3.60;99.90;;;;;;5051840;28;20025;-67
2022/12/01 08:29:34;;;;;;;69.80;34.65;;;3.60;99.90;;;;;;5050958;28;20033;-67
2022/12/01 08:32:00;;;;;;;75.88;37.70;;;3.70;99.90;;;;;;5051388;28;20032;-67
2022/12/01 08:34:25;;;;;;;74.13;36.55;;;3.80;99.90;;;;;;5051364;28;20027;-68
2022/12/01 08:36:51;;;;;;;77.20;36.67;;;3.90;99.90;;;;;;5051231;28;20045;-67
2022/12/01 08:39:17;;;;;;;73.53;36.92;;;4.00;99.90;;;;;;5051892;28;20029;-67
2022/12/01 08:41:42;;;;;;;73.88;38.28;;;4.10;99.90;;;;;;5050745;28;20043;-67
2022/12/01 08:44:09;;;;;;;71.68;36.17;;;4.20;99.90;;;;;;5051497;28;20029;-68
2022/12/01 08:46:35;;;;;;;76.65;36.88;;;4.30;99.90;;;;;;5051691;28;20026;-68
2022/12/01 08:49:03;;;;;;;70.97;35.05;;;4.40;99.90;;;;;;5051144;28;20029;-67
2022/12/01 08:51:29;;;;;;;73.53;36.08;;;4.40;99.90;;;;;;5056593;28;20043;-67
2022/12/01 08:53:56;;;;;;;69.97;35.58;;;4.40;99.40;;;;;;5064891;28;20033;-68
2022/12/01 08:56:27;;;;;;;70.00;35.25;;;4.40;99.20;;;;;;5053820;28;20462;-68
2022/12/01 08:58:53;;;;;;;66.22;33.42;;;4.40;99.20;;;;;;5053300;28;20024;-69
2022/12/01 09:01:19;;;;;;;74.28;34.90;;;4.50;99.30;;;;;;5053485;28;20040;-68
2022/12/01 09:03:45;;;;;;;82.70;35.63;;;4.50;99.00;;;;;;5053672;28;20048;-68
2022/12/01 09:06:14;;;;;;;67.20;34.75;;;4.50;98.60;;;;;;5054564;28;20022;-68
2022/12/01 09:08:40;;;;;;;73.05;34.28;;;4.50;98.40;;;;;;5054664;28;20114;-69
2022/12/01 09:11:17;;;;;;;76.03;35.55;;;4.60;97.80;;;;;;5054399;28;20477;-69
2022/12/01 09:13:44;;;;;;;64.25;34.10;;;4.50;97.50;;;;;;5054308;28;20032;-70
2022/12/01 09:16:13;;;;;;;71.43;35.05;;;4.50;97.70;;;;;;5054432;28;20025;-68
2022/12/01 09:18:39;;;;;;;75.90;36.97;;;4.50;98.20;;;;;;5054509;28;20033;-68
2022/12/01 09:21:21;;;;;;;77.45;36.78;;;4.50;98.10;;;;;;5053217;28;20036;-68
2022/12/01 09:23:47;;;;;;;69.95;35.25;;;4.50;97.70;;;;;;5053815;28;20115;-68
2022/12/01 09:26:17;;;;;;;74.43;35.40;;;4.50;98.10;;;;;;5054608;28;20526;-68
2022/12/01 09:28:43;;;;;;;72.88;36.38;;;4.50;98.40;;;;;;5052942;28;20385;-71
2022/12/01 09:31:11;;;;;;;67.90;35.30;;;4.50;98.20;;;;;;5054230;28;20033;-68
2022/12/01 09:33:37;;;;;;;74.18;36.35;;;4.50;97.90;;;;;;5054222;28;20044;-68
2022/12/01 09:36:04;;;;;;;69.85;36.05;;;4.50;97.70;;;;;;5053801;28;20088;-68
2022/12/01 09:38:32;;;;;;;70.97;35.08;;;4.50;97.70;;;;;;5054392;28;20366;-68
2022/12/01 09:41:05;;;;;;;70.45;35.97;;;4.50;97.50;;;;;;5052648;28;20440;-69
2022/12/01 09:43:44;;;;;;;72.05;36.47;;;4.50;97.00;;;;;;5054337;28;20120;-67
2022/12/01 09:46:17;;;;;;;66.20;34.38;;;4.50;97.30;;;;;;5054032;28;20449;-69
2022/12/01 09:48:46;;;;;;;76.25;37.17;;;4.50;97.40;;;;;;5054488;28;20021;-68
2022/12/01 09:51:17;;;;;;;74.28;34.97;;;4.50;97.40;;;;;;5053986;28;20040;-69
2022/12/01 09:53:43;;;;;;;;;;;4.60;97.50;;;;;;5054259;28;20059;-69
2022/12/01 09:56:21;;;;;;;72.18;35.00;;;4.60;97.70;;;;;;5053712;28;19944;-69
2022/12/01 09:58:52;;;;;;;67.55;34.65;;;4.60;97.80;;;;;;5053553;28;20086;-69
2022/12/01 10:01:19;;;;;;;65.82;35.03;;;4.70;97.90;;;;;;5053928;28;20036;-69
2022/12/01 10:03:50;;;;;;;69.13;35.65;;;4.70;97.80;;;;;;5053381;28;20033;-70
2022/12/01 10:06:22;;;;;;;68.57;35.83;;;4.80;97.90;;;;;;5053835;28;20067;-69
2022/12/01 10:09:15;;;;;;;86.63;36.85;;;4.80;97.70;;;;;;5053131;28;20524;-69
2022/12/01 10:11:44;;;;;;;75.20;35.95;;;4.80;97.40;;;;;;5043124;28;20044;-69
2022/12/01 10:14:16;;;;;;;65.90;34.47;;;4.80;97.40;;;;;;5051451;28;20116;-68
2022/12/01 10:17:19;;;;;;;68.00;35.83;;;4.80;97.10;;;;;;5053460;28;20055;-68
2022/12/01 10:19:54;;;;;;;73.03;35.00;;;4.70;96.90;;;;;;5053032;28;20481;-67
2022/12/01 10:23:05;;;;;;;75.60;35.78;;;4.70;97.40;;;;;;5053405;28;20029;-68
2022/12/01 10:25:42;;;;;;;78.47;37.20;;;4.70;97.40;;;;;;5047589;28;20126;-68
2022/12/01 10:28:42;;;;;;;74.72;36.65;;;4.80;97.30;;;;;;5053275;28;20416;-69
2022/12/01 10:31:23;;;;;;;66.90;34.90;;;4.70;97.10;;;;;;5052779;28;20032;-68
2022/12/01 10:33:59;;;;;;;74.55;36.97;;;4.70;97.20;;;;;;5052981;28;20017;-67
2022/12/01 10:36:27;;;;;;;73.38;34.38;;;4.70;97.50;;;;;;5053213;28;20064;-68
2022/12/01 10:38:53;;;;;;;72.47;37.05;;;4.70;97.60;;;;;;5052812;28;20036;-68
2022/12/01 10:41:21;;;;;;;73.75;36.00;;;4.70;97.80;;;;;;5052672;28;20438;-68
2022/12/01 10:43:50;;;;;;;73.63;35.97;;;4.70;97.80;;;;;;5053092;28;20037;-68
2022/12/01 10:46:25;;;;;;;74.70;37.35;;;4.70;97.60;;;;;;5052834;28;20112;-68
2022/12/01 10:48:53;;;;;;;73.18;35.90;;;4.80;97.70;;;;;;5052662;28;20029;-68
2022/12/01 10:51:21;;;;;;;70.13;36.22;;;4.70;97.70;;;;;;5052513;28;20470;-67
2022/12/01 10:53:47;;;;;;;67.90;35.33;;;4.80;98.40;;;;;;5052779;28;20382;-69
2022/12/01 10:56:18;;;;;;;68.90;35.45;;;4.90;98.30;;;;;;5052036;28;20024;-68
2022/12/01 10:58:56;;;;;;;71.55;35.22;;;4.90;97.70;;;;;;5052497;28;20481;-68
2022/12/01 11:01:26;;;;;;;72.38;36.60;;;5.00;97.70;;;;;;5052561;28;20033;-67
2022/12/01 11:04:00;;;;;;;71.15;35.13;;;5.10;97.20;;;;;;5051768;28;20025;-68
2022/12/01 11:06:28;;;;;;;70.95;34.75;;;5.10;97.10;;;;;;5052444;28;20060;-68
2022/12/01 11:09:00;;;;;;;68.85;35.88;;;5.10;97.10;;;;;;5052461;28;20071;-68
2022/12/01 11:11:39;;;;;;;71.68;34.95;;;5.10;96.80;;;;;;5051958;28;20029;-68
2022/12/01 11:14:20;;;;;;;71.13;34.70;;;5.20;97.00;;;;;;5051426;28;20037;-68
2022/12/01 11:16:48;;;;;;;73.80;34.97;;;5.20;96.90;;;;;;5052121;28;20472;-68
2022/12/01 11:19:23;;;;;;;68.93;35.85;;;5.30;96.90;;;;;;5051903;28;20040;-68
2022/12/01 11:21:54;;;;;;;69.68;36.42;;;5.30;97.20;;;;;;5051894;28;20029;-68
2022/12/01 11:24:42;;;;;;;71.40;35.60;;;5.30;96.50;;;;;;5052951;28;20373;-68
2022/12/01 11:27:43;;;;;;;70.57;35.80;;;5.30;96.30;;;;;;5053686;28;20033;-68
2022/12/01 11:30:23;;;;;;;71.95;35.25;;;5.30;96.40;;;;;;5055812;28;20055;-68
2022/12/01 11:32:54;;;;;;;67.28;34.22;;;5.40;96.40;;;;;;5055780;28;20319;-68
2022/12/01 11:35:23;;;;;;;66.10;34.83;;;5.40;96.10;;;;;;5055099;28;20086;-69
2022/12/01 11:37:58;;;;;;;70.13;35.75;;;5.40;96.30;;;;;;5055275;28;20013;-69
2022/12/01 11:40:35;;;;;;;76.70;35.53;;;5.50;96.40;;;;;;5056057;28;20138;-69
2022/12/01 11:43:04;;;;;;;65.95;34.38;;;5.50;96.30;;;;;;5055271;28;20116;-69
2022/12/01 11:45:32;;;;;;;66.88;34.10;;;5.50;96.20;;;;;;5054021;28;20040;-69
2022/12/01 11:48:00;;;;;;;69.88;34.83;;;5.50;96.10;;;;;;5053262;28;20025;-69
2022/12/01 11:50:29;;;;;;;65.03;34.10;;;5.60;96.20;;;;;;5052265;28;20028;-69
2022/12/01 11:52:55;;;;;;;68.93;35.53;;;5.60;95.90;;;;;;5051587;28;20389;-69
2022/12/01 11:55:23;;;;;;;68.45;34.58;;;5.60;96.00;;;;;;5051503;28;20025;-69
2022/12/01 11:57:52;;;;;;;69.72;36.20;;;5.60;96.30;;;;;;5051941;28;20492;-70
2022/12/01 12:00:20;;;;;;;65.57;33.70;;;5.60;96.10;;;;;;5051670;28;20029;-68
2022/12/01 12:02:58;;;;;;;63.28;34.20;;;5.60;95.40;;;;;;5052384;28;20485;-68
2022/12/01 12:05:44;;;;;;;69.53;34.72;;;5.60;95.60;;;;;;5052492;28;20032;-68
2022/12/01 12:08:31;;;;;;;68.05;34.60;;;5.60;96.10;;;;;;5052023;28;20158;-68
2022/12/01 12:11:26;;;;;;;61.20;33.42;;;5.70;95.70;;;;;;5051290;28;20536;-68
2022/12/01 12:14:01;;;;;;;65.28;33.55;;;5.70;95.60;;;;;;5051946;28;20099;-68
2022/12/01 12:17:25;;;;;;;71.90;34.88;;;5.70;95.30;;;;;;5051957;28;20063;-68
2022/12/01 12:19:59;;;;;;;63.17;32.15;;;5.70;95.10;;;;;;5015039;28;20148;-68
2022/12/01 12:22:40;;;;;;;70.53;34.25;;;5.70;95.40;;;;;;5051751;28;20055;-68
2022/12/01 12:25:37;;;;;;;66.07;34.08;;;5.70;95.10;;;;;;5050292;28;20025;-68
2022/12/01 12:28:49;;;;;;;65.90;33.88;;;5.70;94.90;;;;;;5055108;28;20025;-68
2022/12/01 12:31:50;;;;;;;64.43;33.17;;;5.70;95.50;;;;;;5052893;28;20044;-69
2022/12/01 12:34:43;;;;;;;62.90;31.73;;;5.70;95.00;;;;;;5055355;28;20025;-69
2022/12/01 12:37:11;;;;;;;62.80;32.03;;;5.60;94.60;;;;;;5055192;28;20045;-69
2022/12/01 12:39:51;;;;;;;64.60;33.50;;;5.60;95.20;;;;;;5055891;28;20029;-68
2022/12/01 12:42:38;;;;;;;69.97;33.95;;;5.60;95.10;;;;;;5054679;28;20057;-68
2022/12/01 12:45:25;;;;;;;67.13;33.80;;;5.60;95.30;;;;;;5054885;28;20056;-69
2022/12/01 12:47:54;;;;;;;65.05;34.55;;;5.60;95.70;;;;;;5055390;28;20017;-69
2022/12/01 12:50:39;;;;;;;66.30;34.00;;;5.50;95.60;;;;;;5055024;28;20158;-68
2022/12/01 12:53:13;;;;;;;63.50;33.38;;;5.60;95.40;;;;;;5054916;28;20056;-69
2022/12/01 12:55:44;;;;;;;64.70;33.75;;;5.60;95.70;;;;;;5055518;28;20460;-68
2022/12/01 12:58:10;;;;;;;64.75;34.40;;;5.60;96.10;;;;;;5053791;28;20462;-68
2022/12/01 13:00:42;;;;;;;62.20;31.65;;;5.60;96.20;;;;;;5055320;28;20047;-70